sensor_id;sensor_type;location;lat;lon;timestamp;temperature;humidity
1391;DHT22;690;51.454;7.194;2023-12-20T00:01:55;6.00;1.00
1391;DHT22;690;51.454;7.194;2023-12-20T00:04:22;6.10;1.00
1391;DHT22;690;51.454;7.194;2023-12-20T00:06:48;6.00;1.00
1391;DHT22;690;51.454;7.194;2023-12-20T00:09:15;6.10;1.00
1391;DHT22;690;51.454;7.194;2023-12-20T00:11:44;6.10;1.00
1391;DHT22;690;51.454;7.194;2023-12-20T00:14:11;6.10;1.00
1391;DHT22;690;51.454;7.194;2023-12-20T00:16:38;6.10;1.00
1391;DHT22;690;51.454;7.194;2023-12-20T00:19:05;6.00;1.00
1391;DHT22;690;51.454;7.194;2023-12-20T00:21:33;6.00;1.00
1391;DHT22;690;51.454;7.194;2023-12-20T00:24:00;6.00;1.00
1391;DHT22;690;51.454;7.194;2023-12-20T00:26:27;5.90;1.00
1391;DHT22;690;51.454;7.194;2023-12-20T00:28:55;5.90;1.00
1391;DHT22;690;51.454;7.194;2023-12-20T00:31:22;5.90;1.00
1391;DHT22;690;51.454;7.194;2023-12-20T00:33:49;5.80;99.90
1391;DHT22;690;51.454;7.194;2023-12-20T00:36:16;5.60;1.00
1391;DHT22;690;51.454;7.194;2023-12-20T00:38:43;5.70;1.00
1391;DHT22;690;51.454;7.194;2023-12-20T00:41:10;5.70;99.90
1391;DHT22;690;51.454;7.194;2023-12-20T00:43:37;5.70;99.90
1391;DHT22;690;51.454;7.194;2023-12-20T00:46:05;5.60;99.90
1391;DHT22;690;51.454;7.194;2023-12-20T00:48:32;5.50;99.90
1391;DHT22;690;51.454;7.194;2023-12-20T00:50:58;5.40;99.90
1391;DHT22;690;51.454;7.194;2023-12-20T00:53:25;5.40;99.90
1391;DHT22;690;51.454;7.194;2023-12-20T00:55:53;5.30;99.90
1391;DHT22;690;51.454;7.194;2023-12-20T00:58:20;5.30;99.90
1391;DHT22;690;51.454;7.194;2023-12-20T01:00:47;5.40;99.90
1391;DHT22;690;51.454;7.194;2023-12-20T01:03:15;5.40;99.90
1391;DHT22;690;51.454;7.194;2023-12-20T01:05:42;5.40;99.90
1391;DHT22;690;51.454;7.194;2023-12-20T01:08:09;5.40;99.90
1391;DHT22;690;51.454;7.194;2023-12-20T01:10:36;5.40;99.90
1391;DHT22;690;51.454;7.194;2023-12-20T01:13:03;5.40;99.90
1391;DHT22;690;51.454;7.194;2023-12-20T01:15:30;5.50;99.90
1391;DHT22;690;51.454;7.194;2023-12-20T01:17:57;5.50;99.90
1391;DHT22;690;51.454;7.194;2023-12-20T01:20:27;5.50;99.90
1391;DHT22;690;51.454;7.194;2023-12-20T01:22:54;5.40;46.50
1391;DHT22;690;51.454;7.194;2023-12-20T01:25:21;5.40;68.30
1391;DHT22;690;51.454;7.194;2023-12-20T01:27:48;5.50;59.70
1391;DHT22;690;51.454;7.194;2023-12-20T01:30:15;5.50;26.80
1391;DHT22;690;51.454;7.194;2023-12-20T01:32:42;5.50;1.00
1391;DHT22;690;51.454;7.194;2023-12-20T01:35:09;5.50;1.00
1391;DHT22;690;51.454;7.194;2023-12-20T01:37:39;5.50;1.00
1391;DHT22;690;51.454;7.194;2023-12-20T01:40:07;5.50;1.00
1391;DHT22;690;51.454;7.194;2023-12-20T01:42:33;5.40;1.00
1391;DHT22;690;51.454;7.194;2023-12-20T01:45:00;5.30;99.90
1391;DHT22;690;51.454;7.194;2023-12-20T01:47:28;5.30;99.90
1391;DHT22;690;51.454;7.194;2023-12-20T01:49:54;5.10;99.90
1391;DHT22;690;51.454;7.194;2023-12-20T01:52:23;5.00;99.90
1391;DHT22;690;51.454;7.194;2023-12-20T01:54:52;4.90;99.90
1391;DHT22;690;51.454;7.194;2023-12-20T01:57:20;4.90;1.00
1391;DHT22;690;51.454;7.194;2023-12-20T01:59:48;4.90;1.00
1391;DHT22;690;51.454;7.194;2023-12-20T02:02:15;4.90;1.00
1391;DHT22;690;51.454;7.194;2023-12-20T02:04:41;4.90;1.00
1391;DHT22;690;51.454;7.194;2023-12-20T02:07:09;4.90;1.00
1391;DHT22;690;51.454;7.194;2023-12-20T02:09:36;4.90;99.90
1391;DHT22;690;51.454;7.194;2023-12-20T02:12:05;4.80;99.90
1391;DHT22;690;51.454;7.194;2023-12-20T02:14:32;4.90;99.90
1391;DHT22;690;51.454;7.194;2023-12-20T02:16:59;4.90;91.80
1391;DHT22;690;51.454;7.194;2023-12-20T02:19:26;5.00;89.50
1391;DHT22;690;51.454;7.194;2023-12-20T02:22:07;5.00;1.00
1391;DHT22;690;51.454;7.194;2023-12-20T02:24:34;4.90;1.00
1391;DHT22;690;51.454;7.194;2023-12-20T02:27:01;4.90;1.00
1391;DHT22;690;51.454;7.194;2023-12-20T02:29:27;4.80;1.00
1391;DHT22;690;51.454;7.194;2023-12-20T02:31:54;4.80;1.00
1391;DHT22;690;51.454;7.194;2023-12-20T02:34:21;4.70;1.00
1391;DHT22;690;51.454;7.194;2023-12-20T02:36:48;4.70;26.70
1391;DHT22;690;51.454;7.194;2023-12-20T02:39:17;4.70;93.30
1391;DHT22;690;51.454;7.194;2023-12-20T02:41:45;4.80;1.00
1391;DHT22;690;51.454;7.194;2023-12-20T02:44:11;4.80;3.60
1391;DHT22;690;51.454;7.194;2023-12-20T02:46:38;4.80;1.00
1391;DHT22;690;51.454;7.194;2023-12-20T02:49:06;4.90;99.90
1391;DHT22;690;51.454;7.194;2023-12-20T02:51:32;4.90;56.40
1391;DHT22;690;51.454;7.194;2023-12-20T02:53:59;4.90;99.90
1391;DHT22;690;51.454;7.194;2023-12-20T02:56:27;4.90;99.90
1391;DHT22;690;51.454;7.194;2023-12-20T02:58:55;4.80;99.90
1391;DHT22;690;51.454;7.194;2023-12-20T03:01:22;4.80;99.90
1391;DHT22;690;51.454;7.194;2023-12-20T03:03:48;4.80;99.90
1391;DHT22;690;51.454;7.194;2023-12-20T03:06:16;4.70;93.10
1391;DHT22;690;51.454;7.194;2023-12-20T03:08:43;4.80;1.00
1391;DHT22;690;51.454;7.194;2023-12-20T03:11:10;4.70;1.00
1391;DHT22;690;51.454;7.194;2023-12-20T03:13:38;4.70;1.00
1391;DHT22;690;51.454;7.194;2023-12-20T03:16:08;4.70;1.00
1391;DHT22;690;51.454;7.194;2023-12-20T03:18:35;4.70;1.00
1391;DHT22;690;51.454;7.194;2023-12-20T03:21:03;4.60;1.00
1391;DHT22;690;51.454;7.194;2023-12-20T03:23:30;4.60;1.00
1391;DHT22;690;51.454;7.194;2023-12-20T03:25:58;4.60;1.00
1391;DHT22;690;51.454;7.194;2023-12-20T03:28:25;4.60;1.00
1391;DHT22;690;51.454;7.194;2023-12-20T03:30:54;4.60;1.00
1391;DHT22;690;51.454;7.194;2023-12-20T03:33:21;4.50;1.00
1391;DHT22;690;51.454;7.194;2023-12-20T03:35:48;4.50;1.00
1391;DHT22;690;51.454;7.194;2023-12-20T03:38:15;4.50;99.90
1391;DHT22;690;51.454;7.194;2023-12-20T03:40:42;4.50;99.90
1391;DHT22;690;51.454;7.194;2023-12-20T03:43:09;4.50;99.90
1391;DHT22;690;51.454;7.194;2023-12-20T03:45:35;4.60;99.90
1391;DHT22;690;51.454;7.194;2023-12-20T03:48:05;4.50;99.90
1391;DHT22;690;51.454;7.194;2023-12-20T03:50:32;4.50;99.90
1391;DHT22;690;51.454;7.194;2023-12-20T03:52:59;4.60;99.90
1391;DHT22;690;51.454;7.194;2023-12-20T03:55:25;4.60;99.90
1391;DHT22;690;51.454;7.194;2023-12-20T03:57:52;4.60;99.90
1391;DHT22;690;51.454;7.194;2023-12-20T04:00:20;4.60;99.90
1391;DHT22;690;51.454;7.194;2023-12-20T04:02:46;4.50;99.90
1391;DHT22;690;51.454;7.194;2023-12-20T04:05:16;4.60;1.00
1391;DHT22;690;51.454;7.194;2023-12-20T04:07:43;4.60;99.90
1391;DHT22;690;51.454;7.194;2023-12-20T04:10:10;4.60;99.90
1391;DHT22;690;51.454;7.194;2023-12-20T04:12:37;4.60;99.90
1391;DHT22;690;51.454;7.194;2023-12-20T04:15:04;4.60;99.90
1391;DHT22;690;51.454;7.194;2023-12-20T04:17:34;4.50;99.90
1391;DHT22;690;51.454;7.194;2023-12-20T04:20:01;4.50;99.90
1391;DHT22;690;51.454;7.194;2023-12-20T04:22:30;4.50;99.90
1391;DHT22;690;51.454;7.194;2023-12-20T04:24:56;4.50;99.90
1391;DHT22;690;51.454;7.194;2023-12-20T04:27:23;4.40;99.90
1391;DHT22;690;51.454;7.194;2023-12-20T04:29:50;4.30;99.90
1391;DHT22;690;51.454;7.194;2023-12-20T04:32:17;4.30;99.90
1391;DHT22;690;51.454;7.194;2023-12-20T04:34:44;4.30;1.00
1391;DHT22;690;51.454;7.194;2023-12-20T04:37:11;4.30;1.00
1391;DHT22;690;51.454;7.194;2023-12-20T04:39:39;4.20;1.00
1391;DHT22;690;51.454;7.194;2023-12-20T04:42:07;4.30;1.00
1391;DHT22;690;51.454;7.194;2023-12-20T04:44:34;4.30;1.00
1391;DHT22;690;51.454;7.194;2023-12-20T04:47:01;4.30;1.00
1391;DHT22;690;51.454;7.194;2023-12-20T04:49:27;4.40;1.00
1391;DHT22;690;51.454;7.194;2023-12-20T04:51:54;4.40;1.00
1391;DHT22;690;51.454;7.194;2023-12-20T04:54:22;4.40;1.00
1391;DHT22;690;51.454;7.194;2023-12-20T04:56:50;4.40;1.00
1391;DHT22;690;51.454;7.194;2023-12-20T04:59:17;4.30;1.00
1391;DHT22;690;51.454;7.194;2023-12-20T05:01:44;4.30;1.00
1391;DHT22;690;51.454;7.194;2023-12-20T05:04:11;4.30;1.00
1391;DHT22;690;51.454;7.194;2023-12-20T05:06:38;4.30;1.00
1391;DHT22;690;51.454;7.194;2023-12-20T05:09:05;4.30;1.00
1391;DHT22;690;51.454;7.194;2023-12-20T05:11:32;4.30;1.00
1391;DHT22;690;51.454;7.194;2023-12-20T05:14:00;4.10;1.00
1391;DHT22;690;51.454;7.194;2023-12-20T05:16:27;4.10;99.90
1391;DHT22;690;51.454;7.194;2023-12-20T05:18:53;4.10;99.90
1391;DHT22;690;51.454;7.194;2023-12-20T05:21:21;4.10;80.80
1391;DHT22;690;51.454;7.194;2023-12-20T05:23:48;4.10;99.90
1391;DHT22;690;51.454;7.194;2023-12-20T05:26:15;4.10;99.90
1391;DHT22;690;51.454;7.194;2023-12-20T05:28:42;4.20;37.00
1391;DHT22;690;51.454;7.194;2023-12-20T05:31:10;4.20;51.00
1391;DHT22;690;51.454;7.194;2023-12-20T05:33:37;4.20;21.70
1391;DHT22;690;51.454;7.194;2023-12-20T05:36:04;4.10;64.50
1391;DHT22;690;51.454;7.194;2023-12-20T05:38:34;4.20;47.30
1391;DHT22;690;51.454;7.194;2023-12-20T05:41:01;4.20;74.00
1391;DHT22;690;51.454;7.194;2023-12-20T05:43:29;4.20;99.90
1391;DHT22;690;51.454;7.194;2023-12-20T05:45:56;4.30;87.60
1391;DHT22;690;51.454;7.194;2023-12-20T05:48:25;4.30;1.00
1391;DHT22;690;51.454;7.194;2023-12-20T05:50:51;4.20;1.00
1391;DHT22;690;51.454;7.194;2023-12-20T05:53:18;4.20;99.90
1391;DHT22;690;51.454;7.194;2023-12-20T05:55:45;4.30;1.00
1391;DHT22;690;51.454;7.194;2023-12-20T05:58:12;4.20;1.00
1391;DHT22;690;51.454;7.194;2023-12-20T06:00:39;4.20;1.00
1391;DHT22;690;51.454;7.194;2023-12-20T06:03:06;4.20;99.90
1391;DHT22;690;51.454;7.194;2023-12-20T06:05:34;4.20;64.50
1391;DHT22;690;51.454;7.194;2023-12-20T06:08:01;4.20;1.00
1391;DHT22;690;51.454;7.194;2023-12-20T06:10:28;4.20;1.00
1391;DHT22;690;51.454;7.194;2023-12-20T06:12:55;4.20;1.00
1391;DHT22;690;51.454;7.194;2023-12-20T06:15:24;4.20;1.00
1391;DHT22;690;51.454;7.194;2023-12-20T06:17:51;4.20;1.00
1391;DHT22;690;51.454;7.194;2023-12-20T06:20:18;4.20;1.00
1391;DHT22;690;51.454;7.194;2023-12-20T06:22:46;4.20;1.00
1391;DHT22;690;51.454;7.194;2023-12-20T06:25:13;4.20;1.00
1391;DHT22;690;51.454;7.194;2023-12-20T06:27:40;4.20;1.00
1391;DHT22;690;51.454;7.194;2023-12-20T06:30:07;4.20;1.00
1391;DHT22;690;51.454;7.194;2023-12-20T06:32:35;4.20;1.00
1391;DHT22;690;51.454;7.194;2023-12-20T06:35:04;4.20;1.00
1391;DHT22;690;51.454;7.194;2023-12-20T06:37:31;4.20;1.00
1391;DHT22;690;51.454;7.194;2023-12-20T06:39:59;4.30;1.00
1391;DHT22;690;51.454;7.194;2023-12-20T06:42:26;4.30;1.00
1391;DHT22;690;51.454;7.194;2023-12-20T06:44:53;4.30;1.00
1391;DHT22;690;51.454;7.194;2023-12-20T06:47:20;4.30;1.00
1391;DHT22;690;51.454;7.194;2023-12-20T06:49:47;4.30;1.00
1391;DHT22;690;51.454;7.194;2023-12-20T06:52:14;4.30;1.00
1391;DHT22;690;51.454;7.194;2023-12-20T06:54:41;4.40;1.00
1391;DHT22;690;51.454;7.194;2023-12-20T06:57:09;4.40;1.00
1391;DHT22;690;51.454;7.194;2023-12-20T06:59:38;4.40;99.90
1391;DHT22;690;51.454;7.194;2023-12-20T07:02:06;4.40;99.90
1391;DHT22;690;51.454;7.194;2023-12-20T07:04:34;4.40;99.90
1391;DHT22;690;51.454;7.194;2023-12-20T07:07:01;4.40;99.90
1391;DHT22;690;51.454;7.194;2023-12-20T07:09:28;4.50;99.90
1391;DHT22;690;51.454;7.194;2023-12-20T07:11:54;4.50;99.90
1391;DHT22;690;51.454;7.194;2023-12-20T07:14:23;4.50;99.90
1391;DHT22;690;51.454;7.194;2023-12-20T07:16:50;4.50;14.00
1391;DHT22;690;51.454;7.194;2023-12-20T07:19:17;4.50;99.90
1391;DHT22;690;51.454;7.194;2023-12-20T07:21:44;4.50;1.00
1391;DHT22;690;51.454;7.194;2023-12-20T07:24:10;4.50;1.00
1391;DHT22;690;51.454;7.194;2023-12-20T07:26:38;4.40;1.00
1391;DHT22;690;51.454;7.194;2023-12-20T07:29:05;4.40;1.00
1391;DHT22;690;51.454;7.194;2023-12-20T07:31:33;4.50;1.00
1391;DHT22;690;51.454;7.194;2023-12-20T07:34:00;4.50;1.00
1391;DHT22;690;51.454;7.194;2023-12-20T07:36:27;4.60;1.00
1391;DHT22;690;51.454;7.194;2023-12-20T07:38:54;4.60;1.00
1391;DHT22;690;51.454;7.194;2023-12-20T07:41:21;4.60;1.00
1391;DHT22;690;51.454;7.194;2023-12-20T07:43:49;4.50;1.00
1391;DHT22;690;51.454;7.194;2023-12-20T07:46:16;4.50;1.00
1391;DHT22;690;51.454;7.194;2023-12-20T07:48:45;4.60;1.00
1391;DHT22;690;51.454;7.194;2023-12-20T07:51:12;4.60;1.00
1391;DHT22;690;51.454;7.194;2023-12-20T07:53:38;4.60;1.00
1391;DHT22;690;51.454;7.194;2023-12-20T07:56:14;4.60;1.00
1391;DHT22;690;51.454;7.194;2023-12-20T07:58:41;4.60;1.00
1391;DHT22;690;51.454;7.194;2023-12-20T08:01:07;4.70;99.90
1391;DHT22;690;51.454;7.194;2023-12-20T08:03:34;4.70;99.90
1391;DHT22;690;51.454;7.194;2023-12-20T08:06:04;4.70;99.90
1391;DHT22;690;51.454;7.194;2023-12-20T08:08:31;4.80;99.90
1391;DHT22;690;51.454;7.194;2023-12-20T08:10:58;4.80;99.90
1391;DHT22;690;51.454;7.194;2023-12-20T08:13:26;4.70;99.90
1391;DHT22;690;51.454;7.194;2023-12-20T08:15:53;4.70;99.90
1391;DHT22;690;51.454;7.194;2023-12-20T08:18:21;4.80;99.90
1391;DHT22;690;51.454;7.194;2023-12-20T08:20:48;4.80;99.90
1391;DHT22;690;51.454;7.194;2023-12-20T08:23:19;4.80;99.90
1391;DHT22;690;51.454;7.194;2023-12-20T08:25:47;4.80;99.90
1391;DHT22;690;51.454;7.194;2023-12-20T08:28:14;4.80;99.90
1391;DHT22;690;51.454;7.194;2023-12-20T08:30:41;4.80;99.90
1391;DHT22;690;51.454;7.194;2023-12-20T08:33:08;4.80;99.90
1391;DHT22;690;51.454;7.194;2023-12-20T08:35:38;4.80;99.90
1391;DHT22;690;51.454;7.194;2023-12-20T08:38:05;4.80;99.90
1391;DHT22;690;51.454;7.194;2023-12-20T08:40:33;4.80;99.90
1391;DHT22;690;51.454;7.194;2023-12-20T08:43:01;4.80;99.90
1391;DHT22;690;51.454;7.194;2023-12-20T08:45:28;4.90;99.90
1391;DHT22;690;51.454;7.194;2023-12-20T08:47:55;4.90;99.90
1391;DHT22;690;51.454;7.194;2023-12-20T08:50:22;4.90;99.90
1391;DHT22;690;51.454;7.194;2023-12-20T08:52:49;5.00;99.90
1391;DHT22;690;51.454;7.194;2023-12-20T08:55:15;4.90;49.50
1391;DHT22;690;51.454;7.194;2023-12-20T08:57:45;4.90;81.30
1391;DHT22;690;51.454;7.194;2023-12-20T09:00:13;4.90;1.00
1391;DHT22;690;51.454;7.194;2023-12-20T09:02:40;4.90;3.40
1391;DHT22;690;51.454;7.194;2023-12-20T09:05:08;4.80;43.70
1391;DHT22;690;51.454;7.194;2023-12-20T09:07:35;4.90;62.50
1391;DHT22;690;51.454;7.194;2023-12-20T09:10:02;5.00;42.40
1391;DHT22;690;51.454;7.194;2023-12-20T09:12:29;4.90;1.00
1391;DHT22;690;51.454;7.194;2023-12-20T09:14:57;4.90;1.00
1391;DHT22;690;51.454;7.194;2023-12-20T09:17:25;4.90;1.00
1391;DHT22;690;51.454;7.194;2023-12-20T09:19:52;5.00;1.00
1391;DHT22;690;51.454;7.194;2023-12-20T09:22:19;5.00;1.00
1391;DHT22;690;51.454;7.194;2023-12-20T09:24:46;5.10;1.00
1391;DHT22;690;51.454;7.194;2023-12-20T09:27:13;5.10;1.00
1391;DHT22;690;51.454;7.194;2023-12-20T09:29:40;5.10;1.00
1391;DHT22;690;51.454;7.194;2023-12-20T09:32:08;5.20;1.00
1391;DHT22;690;51.454;7.194;2023-12-20T09:34:35;5.10;1.00
1391;DHT22;690;51.454;7.194;2023-12-20T09:37:03;5.10;1.00
1391;DHT22;690;51.454;7.194;2023-12-20T09:39:31;5.10;1.00
1391;DHT22;690;51.454;7.194;2023-12-20T09:42:02;5.10;1.00
1391;DHT22;690;51.454;7.194;2023-12-20T09:44:29;5.10;1.00
1391;DHT22;690;51.454;7.194;2023-12-20T09:46:57;5.10;1.00
1391;DHT22;690;51.454;7.194;2023-12-20T09:49:27;5.10;1.00
1391;DHT22;690;51.454;7.194;2023-12-20T09:51:55;5.10;1.00
1391;DHT22;690;51.454;7.194;2023-12-20T09:54:23;5.10;1.00
1391;DHT22;690;51.454;7.194;2023-12-20T09:56:50;5.20;1.00
1391;DHT22;690;51.454;7.194;2023-12-20T09:59:17;5.30;1.00
1391;DHT22;690;51.454;7.194;2023-12-20T10:01:44;5.30;1.00
1391;DHT22;690;51.454;7.194;2023-12-20T10:04:12;5.30;1.00
1391;DHT22;690;51.454;7.194;2023-12-20T10:06:42;5.40;1.00
1391;DHT22;690;51.454;7.194;2023-12-20T10:09:10;5.40;99.90
1391;DHT22;690;51.454;7.194;2023-12-20T10:11:39;5.30;99.90
1391;DHT22;690;51.454;7.194;2023-12-20T10:14:07;5.30;99.90
1391;DHT22;690;51.454;7.194;2023-12-20T10:16:34;5.30;99.90
1391;DHT22;690;51.454;7.194;2023-12-20T10:19:01;5.40;99.90
1391;DHT22;690;51.454;7.194;2023-12-20T10:21:28;5.40;99.90
1391;DHT22;690;51.454;7.194;2023-12-20T10:23:57;5.40;99.90
1391;DHT22;690;51.454;7.194;2023-12-20T10:26:25;5.40;99.90
1391;DHT22;690;51.454;7.194;2023-12-20T10:28:54;5.40;99.90
1391;DHT22;690;51.454;7.194;2023-12-20T10:31:28;5.40;99.90
1391;DHT22;690;51.454;7.194;2023-12-20T10:33:56;5.40;99.90
1391;DHT22;690;51.454;7.194;2023-12-20T10:36:24;5.40;99.90
1391;DHT22;690;51.454;7.194;2023-12-20T10:38:53;5.40;99.90
1391;DHT22;690;51.454;7.194;2023-12-20T10:41:26;5.50;99.90
1391;DHT22;690;51.454;7.194;2023-12-20T10:43:56;5.50;99.90
1391;DHT22;690;51.454;7.194;2023-12-20T10:46:24;5.50;1.00
1391;DHT22;690;51.454;7.194;2023-12-20T10:48:54;5.60;1.00
1391;DHT22;690;51.454;7.194;2023-12-20T10:51:22;5.70;99.90
1391;DHT22;690;51.454;7.194;2023-12-20T10:53:50;5.70;99.90
1391;DHT22;690;51.454;7.194;2023-12-20T10:56:18;5.80;99.90
1391;DHT22;690;51.454;7.194;2023-12-20T10:58:47;5.80;99.90
1391;DHT22;690;51.454;7.194;2023-12-20T11:01:15;5.70;99.90
1391;DHT22;690;51.454;7.194;2023-12-20T11:03:47;5.60;99.90
1391;DHT22;690;51.454;7.194;2023-12-20T11:06:29;5.50;99.90
1391;DHT22;690;51.454;7.194;2023-12-20T11:09:08;5.50;99.90
1391;DHT22;690;51.454;7.194;2023-12-20T11:11:46;5.60;99.90
1391;DHT22;690;51.454;7.194;2023-12-20T11:14:22;5.60;99.90
1391;DHT22;690;51.454;7.194;2023-12-20T11:16:50;5.50;99.90
1391;DHT22;690;51.454;7.194;2023-12-20T11:19:17;5.50;99.90
1391;DHT22;690;51.454;7.194;2023-12-20T11:21:46;5.60;99.90
1391;DHT22;690;51.454;7.194;2023-12-20T11:24:13;5.70;99.90
1391;DHT22;690;51.454;7.194;2023-12-20T11:26:46;5.70;99.90
1391;DHT22;690;51.454;7.194;2023-12-20T11:29:33;5.80;99.90
1391;DHT22;690;51.454;7.194;2023-12-20T11:32:04;5.80;99.90
1391;DHT22;690;51.454;7.194;2023-12-20T11:34:54;5.80;99.90
1391;DHT22;690;51.454;7.194;2023-12-20T11:37:21;5.80;99.90
1391;DHT22;690;51.454;7.194;2023-12-20T11:39:54;5.80;99.90
1391;DHT22;690;51.454;7.194;2023-12-20T11:42:21;5.70;99.90
1391;DHT22;690;51.454;7.194;2023-12-20T11:44:50;5.70;99.90
1391;DHT22;690;51.454;7.194;2023-12-20T11:47:18;5.80;99.90
1391;DHT22;690;51.454;7.194;2023-12-20T11:49:47;5.80;99.90
1391;DHT22;690;51.454;7.194;2023-12-20T11:52:14;5.70;99.90
1391;DHT22;690;51.454;7.194;2023-12-20T11:54:41;5.70;1.00
1391;DHT22;690;51.454;7.194;2023-12-20T11:57:08;5.70;1.00
1391;DHT22;690;51.454;7.194;2023-12-20T11:59:36;5.70;1.00
1391;DHT22;690;51.454;7.194;2023-12-20T12:02:05;5.70;1.00
1391;DHT22;690;51.454;7.194;2023-12-20T12:04:32;5.70;1.00
1391;DHT22;690;51.454;7.194;2023-12-20T12:06:59;5.70;1.00
1391;DHT22;690;51.454;7.194;2023-12-20T12:09:26;5.70;1.00
1391;DHT22;690;51.454;7.194;2023-12-20T12:11:53;5.70;1.00
1391;DHT22;690;51.454;7.194;2023-12-20T12:14:20;5.60;1.00
1391;DHT22;690;51.454;7.194;2023-12-20T12:16:47;5.60;1.00
1391;DHT22;690;51.454;7.194;2023-12-20T12:19:22;5.60;1.00
1391;DHT22;690;51.454;7.194;2023-12-20T12:21:49;5.60;1.00
1391;DHT22;690;51.454;7.194;2023-12-20T12:24:20;5.50;1.00
1391;DHT22;690;51.454;7.194;2023-12-20T12:26:50;5.50;1.00
1391;DHT22;690;51.454;7.194;2023-12-20T12:29:17;5.50;1.00
1391;DHT22;690;51.454;7.194;2023-12-20T12:31:44;5.50;1.00
1391;DHT22;690;51.454;7.194;2023-12-20T12:34:11;5.40;1.00
1391;DHT22;690;51.454;7.194;2023-12-20T12:36:39;5.40;1.00
1391;DHT22;690;51.454;7.194;2023-12-20T12:39:06;5.40;1.00
1391;DHT22;690;51.454;7.194;2023-12-20T12:41:34;5.50;60.90
1391;DHT22;690;51.454;7.194;2023-12-20T12:44:01;5.50;43.60
1391;DHT22;690;51.454;7.194;2023-12-20T12:46:27;5.40;99.90
1391;DHT22;690;51.454;7.194;2023-12-20T12:48:54;5.40;99.90
1391;DHT22;690;51.454;7.194;2023-12-20T12:51:21;5.40;99.90
1391;DHT22;690;51.454;7.194;2023-12-20T12:53:50;5.40;99.90
1391;DHT22;690;51.454;7.194;2023-12-20T12:56:17;5.50;99.90
1391;DHT22;690;51.454;7.194;2023-12-20T12:58:44;5.50;99.90
1391;DHT22;690;51.454;7.194;2023-12-20T13:01:11;5.50;99.90
1391;DHT22;690;51.454;7.194;2023-12-20T13:03:38;5.50;99.90
1391;DHT22;690;51.454;7.194;2023-12-20T13:06:05;5.40;99.90
1391;DHT22;690;51.454;7.194;2023-12-20T13:08:34;5.40;99.90
1391;DHT22;690;51.454;7.194;2023-12-20T13:11:03;5.40;99.90
1391;DHT22;690;51.454;7.194;2023-12-20T13:13:30;5.40;99.90
1391;DHT22;690;51.454;7.194;2023-12-20T13:15:57;5.40;99.90
1391;DHT22;690;51.454;7.194;2023-12-20T13:18:24;5.50;99.90
1391;DHT22;690;51.454;7.194;2023-12-20T13:20:51;5.50;99.90
1391;DHT22;690;51.454;7.194;2023-12-20T13:23:18;5.50;99.90
1391;DHT22;690;51.454;7.194;2023-12-20T13:25:45;5.60;99.90
1391;DHT22;690;51.454;7.194;2023-12-20T13:28:13;5.60;96.50
1391;DHT22;690;51.454;7.194;2023-12-20T13:30:40;5.60;99.90
1391;DHT22;690;51.454;7.194;2023-12-20T13:33:07;5.50;99.90
1391;DHT22;690;51.454;7.194;2023-12-20T13:35:34;5.60;99.90
1391;DHT22;690;51.454;7.194;2023-12-20T13:38:03;5.60;96.00
1391;DHT22;690;51.454;7.194;2023-12-20T13:40:30;5.50;54.00
1391;DHT22;690;51.454;7.194;2023-12-20T13:42:58;5.60;37.70
1391;DHT22;690;51.454;7.194;2023-12-20T13:45:26;5.60;7.40
1391;DHT22;690;51.454;7.194;2023-12-20T13:47:53;5.60;1.10
1391;DHT22;690;51.454;7.194;2023-12-20T13:50:20;5.60;1.00
1391;DHT22;690;51.454;7.194;2023-12-20T13:52:47;5.60;1.00
1391;DHT22;690;51.454;7.194;2023-12-20T13:55:14;5.60;1.00
1391;DHT22;690;51.454;7.194;2023-12-20T13:57:41;5.50;20.90
1391;DHT22;690;51.454;7.194;2023-12-20T14:00:09;5.50;99.10
1391;DHT22;690;51.454;7.194;2023-12-20T14:02:42;5.50;99.90
1391;DHT22;690;51.454;7.194;2023-12-20T14:05:09;5.50;99.90
1391;DHT22;690;51.454;7.194;2023-12-20T14:07:36;5.50;99.90
1391;DHT22;690;51.454;7.194;2023-12-20T14:10:04;5.50;99.90
1391;DHT22;690;51.454;7.194;2023-12-20T14:12:31;5.60;99.90
1391;DHT22;690;51.454;7.194;2023-12-20T14:15:02;5.50;99.90
1391;DHT22;690;51.454;7.194;2023-12-20T14:17:28;5.50;99.90
1391;DHT22;690;51.454;7.194;2023-12-20T14:19:58;5.50;99.90
1391;DHT22;690;51.454;7.194;2023-12-20T14:22:25;5.50;99.90
1391;DHT22;690;51.454;7.194;2023-12-20T14:24:54;5.60;99.90
1391;DHT22;690;51.454;7.194;2023-12-20T14:27:22;5.60;99.90
1391;DHT22;690;51.454;7.194;2023-12-20T14:29:50;5.60;99.90
1391;DHT22;690;51.454;7.194;2023-12-20T14:32:17;5.50;99.90
1391;DHT22;690;51.454;7.194;2023-12-20T14:34:43;5.50;99.90
1391;DHT22;690;51.454;7.194;2023-12-20T14:37:12;5.50;99.90
1391;DHT22;690;51.454;7.194;2023-12-20T14:39:39;5.50;99.90
1391;DHT22;690;51.454;7.194;2023-12-20T14:42:07;5.50;99.90
1391;DHT22;690;51.454;7.194;2023-12-20T14:44:36;5.50;99.90
1391;DHT22;690;51.454;7.194;2023-12-20T14:47:04;5.50;99.90
1391;DHT22;690;51.454;7.194;2023-12-20T14:49:31;5.40;99.90
1391;DHT22;690;51.454;7.194;2023-12-20T14:51:58;5.40;1.00
1391;DHT22;690;51.454;7.194;2023-12-20T14:54:26;5.40;1.00
1391;DHT22;690;51.454;7.194;2023-12-20T14:56:53;5.40;1.00
1391;DHT22;690;51.454;7.194;2023-12-20T14:59:21;5.50;1.00
1391;DHT22;690;51.454;7.194;2023-12-20T15:01:48;5.50;99.90
1391;DHT22;690;51.454;7.194;2023-12-20T15:04:15;5.50;1.00
1391;DHT22;690;51.454;7.194;2023-12-20T15:06:42;5.50;1.00
1391;DHT22;690;51.454;7.194;2023-12-20T15:09:10;5.50;1.00
1391;DHT22;690;51.454;7.194;2023-12-20T15:11:38;5.50;1.00
1391;DHT22;690;51.454;7.194;2023-12-20T15:14:06;5.50;1.00
1391;DHT22;690;51.454;7.194;2023-12-20T15:16:33;5.50;1.00
1391;DHT22;690;51.454;7.194;2023-12-20T15:19:01;5.50;1.00
1391;DHT22;690;51.454;7.194;2023-12-20T15:21:29;5.50;1.00
1391;DHT22;690;51.454;7.194;2023-12-20T15:24:00;5.60;1.00
1391;DHT22;690;51.454;7.194;2023-12-20T15:26:40;5.60;1.00
1391;DHT22;690;51.454;7.194;2023-12-20T15:29:07;5.50;1.00
1391;DHT22;690;51.454;7.194;2023-12-20T15:31:34;5.50;1.00
1391;DHT22;690;51.454;7.194;2023-12-20T15:34:02;5.50;1.00
1391;DHT22;690;51.454;7.194;2023-12-20T15:36:29;5.50;1.00
1391;DHT22;690;51.454;7.194;2023-12-20T15:38:57;5.50;1.00
1391;DHT22;690;51.454;7.194;2023-12-20T15:41:24;5.50;1.00
1391;DHT22;690;51.454;7.194;2023-12-20T15:43:52;5.50;1.00
1391;DHT22;690;51.454;7.194;2023-12-20T15:46:19;5.50;1.00
1391;DHT22;690;51.454;7.194;2023-12-20T15:48:46;5.50;1.00
1391;DHT22;690;51.454;7.194;2023-12-20T15:51:14;5.50;1.00
1391;DHT22;690;51.454;7.194;2023-12-20T15:53:41;5.50;1.00
1391;DHT22;690;51.454;7.194;2023-12-20T15:56:08;5.50;1.00
1391;DHT22;690;51.454;7.194;2023-12-20T15:58:35;5.50;1.00
1391;DHT22;690;51.454;7.194;2023-12-20T16:01:03;5.60;1.00
1391;DHT22;690;51.454;7.194;2023-12-20T16:03:30;5.60;1.00
1391;DHT22;690;51.454;7.194;2023-12-20T16:05:57;5.60;1.00
1391;DHT22;690;51.454;7.194;2023-12-20T16:08:24;5.60;1.00
1391;DHT22;690;51.454;7.194;2023-12-20T16:10:52;5.60;1.00
1391;DHT22;690;51.454;7.194;2023-12-20T16:13:19;5.50;1.00
1391;DHT22;690;51.454;7.194;2023-12-20T16:15:46;5.60;1.00
1391;DHT22;690;51.454;7.194;2023-12-20T16:18:14;5.70;1.00
1391;DHT22;690;51.454;7.194;2023-12-20T16:20:41;5.70;1.00
1391;DHT22;690;51.454;7.194;2023-12-20T16:23:08;5.70;1.00
1391;DHT22;690;51.454;7.194;2023-12-20T16:25:36;5.60;1.00
1391;DHT22;690;51.454;7.194;2023-12-20T16:28:04;5.70;1.00
1391;DHT22;690;51.454;7.194;2023-12-20T16:30:31;5.70;1.00
1391;DHT22;690;51.454;7.194;2023-12-20T16:32:58;5.70;1.00
1391;DHT22;690;51.454;7.194;2023-12-20T16:35:26;5.70;1.00
1391;DHT22;690;51.454;7.194;2023-12-20T16:37:53;5.70;1.00
1391;DHT22;690;51.454;7.194;2023-12-20T16:40:20;5.60;1.00
1391;DHT22;690;51.454;7.194;2023-12-20T16:42:50;5.60;1.00
1391;DHT22;690;51.454;7.194;2023-12-20T16:45:18;5.60;1.00
1391;DHT22;690;51.454;7.194;2023-12-20T16:47:45;5.70;1.00